sensor_id;sensor_type;location;lat;lon;timestamp;P1;durP1;ratioP1;P2;durP2;ratioP2
74920;SDS011;63483;47.384;8.860;2023-12-20T00:01:03;7.40;;;4.43;;
74920;SDS011;63483;47.384;8.860;2023-12-20T00:03:28;6.17;;;3.40;;
74920;SDS011;63483;47.384;8.860;2023-12-20T00:05:54;8.50;;;4.20;;
74920;SDS011;63483;47.384;8.860;2023-12-20T00:08:20;7.90;;;4.38;;
74920;SDS011;63483;47.384;8.860;2023-12-20T00:10:45;7.43;;;3.80;;
74920;SDS011;63483;47.384;8.860;2023-12-20T00:13:11;9.13;;;4.90;;
74920;SDS011;63483;47.384;8.860;2023-12-20T00:15:36;8.20;;;5.03;;
74920;SDS011;63483;47.384;8.860;2023-12-20T00:18:01;8.27;;;4.53;;
74920;SDS011;63483;47.384;8.860;2023-12-20T00:20:27;6.95;;;4.22;;
74920;SDS011;63483;47.384;8.860;2023-12-20T00:22:56;6.55;;;4.40;;
74920;SDS011;63483;47.384;8.860;2023-12-20T00:25:23;9.15;;;5.13;;
74920;SDS011;63483;47.384;8.860;2023-12-20T00:27:48;7.72;;;5.07;;
74920;SDS011;63483;47.384;8.860;2023-12-20T00:30:14;7.97;;;4.40;;
74920;SDS011;63483;47.384;8.860;2023-12-20T00:32:39;8.67;;;4.83;;
74920;SDS011;63483;47.384;8.860;2023-12-20T00:35:06;8.68;;;4.72;;
74920;SDS011;63483;47.384;8.860;2023-12-20T00:37:31;7.70;;;4.07;;
74920;SDS011;63483;47.384;8.860;2023-12-20T00:39:57;6.60;;;4.23;;
74920;SDS011;63483;47.384;8.860;2023-12-20T00:42:22;7.13;;;4.20;;
74920;SDS011;63483;47.384;8.860;2023-12-20T00:44:48;6.32;;;3.55;;
74920;SDS011;63483;47.384;8.860;2023-12-20T00:47:13;5.73;;;3.20;;
74920;SDS011;63483;47.384;8.860;2023-12-20T00:49:38;5.37;;;2.80;;
74920;SDS011;63483;47.384;8.860;2023-12-20T00:52:03;8.70;;;4.20;;
74920;SDS011;63483;47.384;8.860;2023-12-20T00:54:29;7.83;;;4.20;;
74920;SDS011;63483;47.384;8.860;2023-12-20T00:56:55;9.25;;;4.93;;
74920;SDS011;63483;47.384;8.860;2023-12-20T00:59:21;7.43;;;4.07;;
74920;SDS011;63483;47.384;8.860;2023-12-20T01:01:46;7.67;;;4.33;;
74920;SDS011;63483;47.384;8.860;2023-12-20T01:04:11;7.23;;;4.27;;
74920;SDS011;63483;47.384;8.860;2023-12-20T01:06:36;8.50;;;3.87;;
74920;SDS011;63483;47.384;8.860;2023-12-20T01:09:02;7.25;;;4.38;;
74920;SDS011;63483;47.384;8.860;2023-12-20T01:11:27;7.23;;;3.70;;
74920;SDS011;63483;47.384;8.860;2023-12-20T01:13:53;6.73;;;3.40;;
74920;SDS011;63483;47.384;8.860;2023-12-20T01:16:18;7.23;;;3.80;;
74920;SDS011;63483;47.384;8.860;2023-12-20T01:18:43;6.00;;;3.63;;
74920;SDS011;63483;47.384;8.860;2023-12-20T01:21:09;5.50;;;3.47;;
74920;SDS011;63483;47.384;8.860;2023-12-20T01:23:34;59.60;;;5.63;;
74920;SDS011;63483;47.384;8.860;2023-12-20T01:25:59;7.35;;;3.97;;
74920;SDS011;63483;47.384;8.860;2023-12-20T01:28:25;6.23;;;3.43;;
74920;SDS011;63483;47.384;8.860;2023-12-20T01:30:50;5.57;;;3.00;;
74920;SDS011;63483;47.384;8.860;2023-12-20T01:33:16;6.15;;;3.00;;
74920;SDS011;63483;47.384;8.860;2023-12-20T01:35:41;5.93;;;2.70;;
74920;SDS011;63483;47.384;8.860;2023-12-20T01:38:06;5.47;;;2.77;;
74920;SDS011;63483;47.384;8.860;2023-12-20T01:40:32;6.37;;;3.30;;
74920;SDS011;63483;47.384;8.860;2023-12-20T01:43:07;6.27;;;2.70;;
74920;SDS011;63483;47.384;8.860;2023-12-20T01:45:33;4.38;;;2.72;;
74920;SDS011;63483;47.384;8.860;2023-12-20T01:47:59;5.22;;;2.92;;
74920;SDS011;63483;47.384;8.860;2023-12-20T01:50:25;6.60;;;2.60;;
74920;SDS011;63483;47.384;8.860;2023-12-20T01:52:51;6.28;;;2.92;;
74920;SDS011;63483;47.384;8.860;2023-12-20T01:55:20;5.32;;;2.67;;
74920;SDS011;63483;47.384;8.860;2023-12-20T01:57:45;4.65;;;2.60;;
74920;SDS011;63483;47.384;8.860;2023-12-20T02:00:12;5.73;;;2.77;;
74920;SDS011;63483;47.384;8.860;2023-12-20T02:02:39;6.10;;;3.47;;
74920;SDS011;63483;47.384;8.860;2023-12-20T02:05:05;7.93;;;3.17;;
74920;SDS011;63483;47.384;8.860;2023-12-20T02:07:31;6.43;;;2.80;;
74920;SDS011;63483;47.384;8.860;2023-12-20T02:09:57;6.03;;;2.73;;
74920;SDS011;63483;47.384;8.860;2023-12-20T02:12:22;4.97;;;2.83;;
74920;SDS011;63483;47.384;8.860;2023-12-20T02:14:48;5.67;;;3.00;;
74920;SDS011;63483;47.384;8.860;2023-12-20T02:17:13;4.95;;;3.08;;
74920;SDS011;63483;47.384;8.860;2023-12-20T02:19:40;5.85;;;3.42;;
74920;SDS011;63483;47.384;8.860;2023-12-20T02:22:06;8.20;;;3.97;;
74920;SDS011;63483;47.384;8.860;2023-12-20T02:24:35;6.00;;;3.03;;
74920;SDS011;63483;47.384;8.860;2023-12-20T02:27:01;5.43;;;3.57;;
74920;SDS011;63483;47.384;8.860;2023-12-20T02:29:27;5.30;;;3.27;;
74920;SDS011;63483;47.384;8.860;2023-12-20T02:31:52;6.57;;;3.72;;
74920;SDS011;63483;47.384;8.860;2023-12-20T02:34:17;6.57;;;3.50;;
74920;SDS011;63483;47.384;8.860;2023-12-20T02:36:43;6.23;;;3.57;;
74920;SDS011;63483;47.384;8.860;2023-12-20T02:39:08;5.90;;;3.40;;
74920;SDS011;63483;47.384;8.860;2023-12-20T02:41:33;6.40;;;3.50;;
74920;SDS011;63483;47.384;8.860;2023-12-20T02:43:58;5.13;;;3.17;;
74920;SDS011;63483;47.384;8.860;2023-12-20T02:46:24;5.95;;;3.42;;
74920;SDS011;63483;47.384;8.860;2023-12-20T02:48:49;6.30;;;2.97;;
74920;SDS011;63483;47.384;8.860;2023-12-20T02:51:14;5.70;;;3.50;;
74920;SDS011;63483;47.384;8.860;2023-12-20T02:53:40;5.60;;;3.13;;
74920;SDS011;63483;47.384;8.860;2023-12-20T02:56:05;6.13;;;3.57;;
74920;SDS011;63483;47.384;8.860;2023-12-20T02:58:30;7.73;;;3.60;;
74920;SDS011;63483;47.384;8.860;2023-12-20T03:00:56;6.27;;;3.57;;
74920;SDS011;63483;47.384;8.860;2023-12-20T03:03:21;5.37;;;3.57;;
74920;SDS011;63483;47.384;8.860;2023-12-20T03:05:46;6.23;;;3.50;;
74920;SDS011;63483;47.384;8.860;2023-12-20T03:08:12;7.72;;;3.72;;
74920;SDS011;63483;47.384;8.860;2023-12-20T03:10:37;5.73;;;3.50;;
74920;SDS011;63483;47.384;8.860;2023-12-20T03:13:02;6.10;;;3.47;;
74920;SDS011;63483;47.384;8.860;2023-12-20T03:15:28;6.47;;;3.83;;
74920;SDS011;63483;47.384;8.860;2023-12-20T03:17:53;5.93;;;3.40;;
74920;SDS011;63483;47.384;8.860;2023-12-20T03:20:18;7.07;;;3.60;;
74920;SDS011;63483;47.384;8.860;2023-12-20T03:22:43;5.47;;;3.53;;
74920;SDS011;63483;47.384;8.860;2023-12-20T03:25:09;5.90;;;3.77;;
74920;SDS011;63483;47.384;8.860;2023-12-20T03:27:36;6.70;;;3.50;;
74920;SDS011;63483;47.384;8.860;2023-12-20T03:30:02;7.78;;;3.88;;
74920;SDS011;63483;47.384;8.860;2023-12-20T03:32:28;7.07;;;4.25;;
74920;SDS011;63483;47.384;8.860;2023-12-20T03:34:53;7.10;;;3.80;;
74920;SDS011;63483;47.384;8.860;2023-12-20T03:37:18;8.27;;;4.40;;
74920;SDS011;63483;47.384;8.860;2023-12-20T03:39:44;7.20;;;4.40;;
74920;SDS011;63483;47.384;8.860;2023-12-20T03:42:09;7.27;;;4.03;;
74920;SDS011;63483;47.384;8.860;2023-12-20T03:44:34;6.77;;;4.03;;
74920;SDS011;63483;47.384;8.860;2023-12-20T03:46:59;8.00;;;5.00;;
74920;SDS011;63483;47.384;8.860;2023-12-20T03:49:25;7.63;;;4.67;;
74920;SDS011;63483;47.384;8.860;2023-12-20T03:51:50;6.38;;;4.22;;
74920;SDS011;63483;47.384;8.860;2023-12-20T03:54:16;7.83;;;4.30;;
74920;SDS011;63483;47.384;8.860;2023-12-20T03:56:41;6.80;;;4.10;;
74920;SDS011;63483;47.384;8.860;2023-12-20T03:59:06;9.20;;;4.73;;
74920;SDS011;63483;47.384;8.860;2023-12-20T04:01:31;6.60;;;4.10;;
74920;SDS011;63483;47.384;8.860;2023-12-20T04:03:57;8.20;;;4.63;;
74920;SDS011;63483;47.384;8.860;2023-12-20T04:06:22;7.57;;;3.97;;
74920;SDS011;63483;47.384;8.860;2023-12-20T04:08:47;7.20;;;4.57;;
74920;SDS011;63483;47.384;8.860;2023-12-20T04:11:13;7.55;;;4.65;;
74920;SDS011;63483;47.384;8.860;2023-12-20T04:13:38;7.37;;;4.57;;
74920;SDS011;63483;47.384;8.860;2023-12-20T04:16:03;6.07;;;3.57;;
74920;SDS011;63483;47.384;8.860;2023-12-20T04:18:29;6.83;;;4.30;;
74920;SDS011;63483;47.384;8.860;2023-12-20T04:20:54;6.33;;;4.00;;
74920;SDS011;63483;47.384;8.860;2023-12-20T04:23:19;9.37;;;4.70;;
74920;SDS011;63483;47.384;8.860;2023-12-20T04:25:44;7.40;;;4.23;;
74920;SDS011;63483;47.384;8.860;2023-12-20T04:28:10;6.27;;;4.13;;
74920;SDS011;63483;47.384;8.860;2023-12-20T04:30:35;7.47;;;4.03;;
74920;SDS011;63483;47.384;8.860;2023-12-20T04:33:00;6.32;;;4.30;;
74920;SDS011;63483;47.384;8.860;2023-12-20T04:35:26;7.07;;;3.90;;
74920;SDS011;63483;47.384;8.860;2023-12-20T04:37:51;6.03;;;4.10;;
74920;SDS011;63483;47.384;8.860;2023-12-20T04:40:16;7.37;;;4.70;;
74920;SDS011;63483;47.384;8.860;2023-12-20T04:42:42;6.53;;;3.27;;
74920;SDS011;63483;47.384;8.860;2023-12-20T04:45:07;6.60;;;3.70;;
74920;SDS011;63483;47.384;8.860;2023-12-20T04:47:32;5.07;;;3.72;;
74920;SDS011;63483;47.384;8.860;2023-12-20T04:49:58;6.70;;;4.23;;
74920;SDS011;63483;47.384;8.860;2023-12-20T04:52:23;6.83;;;4.17;;
74920;SDS011;63483;47.384;8.860;2023-12-20T04:54:49;5.83;;;3.27;;
74920;SDS011;63483;47.384;8.860;2023-12-20T04:57:14;5.80;;;3.73;;
74920;SDS011;63483;47.384;8.860;2023-12-20T04:59:39;5.63;;;3.90;;
74920;SDS011;63483;47.384;8.860;2023-12-20T05:02:06;5.82;;;3.10;;
74920;SDS011;63483;47.384;8.860;2023-12-20T05:04:31;6.43;;;3.90;;
74920;SDS011;63483;47.384;8.860;2023-12-20T05:06:56;6.20;;;3.17;;
74920;SDS011;63483;47.384;8.860;2023-12-20T05:09:22;4.75;;;2.90;;
74920;SDS011;63483;47.384;8.860;2023-12-20T05:11:47;25.52;;;4.65;;
74920;SDS011;63483;47.384;8.860;2023-12-20T05:14:12;4.30;;;2.70;;
74920;SDS011;63483;47.384;8.860;2023-12-20T05:16:37;3.87;;;2.50;;
74920;SDS011;63483;47.384;8.860;2023-12-20T05:19:03;5.33;;;2.40;;
74920;SDS011;63483;47.384;8.860;2023-12-20T05:21:31;3.50;;;2.10;;
74920;SDS011;63483;47.384;8.860;2023-12-20T05:23:57;4.77;;;2.33;;
74920;SDS011;63483;47.384;8.860;2023-12-20T05:26:22;3.40;;;2.10;;
74920;SDS011;63483;47.384;8.860;2023-12-20T05:28:47;3.30;;;2.27;;
74920;SDS011;63483;47.384;8.860;2023-12-20T05:31:12;3.97;;;2.07;;
74920;SDS011;63483;47.384;8.860;2023-12-20T05:33:38;3.37;;;1.80;;
74920;SDS011;63483;47.384;8.860;2023-12-20T05:36:03;3.40;;;2.03;;
74920;SDS011;63483;47.384;8.860;2023-12-20T05:38:29;3.03;;;1.83;;
74920;SDS011;63483;47.384;8.860;2023-12-20T05:40:54;3.20;;;1.30;;
74920;SDS011;63483;47.384;8.860;2023-12-20T05:43:19;3.17;;;2.07;;
74920;SDS011;63483;47.384;8.860;2023-12-20T05:45:45;2.60;;;1.40;;
74920;SDS011;63483;47.384;8.860;2023-12-20T05:48:10;3.37;;;1.40;;
74920;SDS011;63483;47.384;8.860;2023-12-20T05:50:35;2.38;;;1.23;;
74920;SDS011;63483;47.384;8.860;2023-12-20T05:53:01;2.23;;;1.13;;
74920;SDS011;63483;47.384;8.860;2023-12-20T05:55:27;2.25;;;1.15;;
74920;SDS011;63483;47.384;8.860;2023-12-20T05:57:52;2.63;;;1.30;;
74920;SDS011;63483;47.384;8.860;2023-12-20T06:00:17;3.23;;;1.73;;
74920;SDS011;63483;47.384;8.860;2023-12-20T06:02:43;3.57;;;1.90;;
74920;SDS011;63483;47.384;8.860;2023-12-20T06:05:08;3.63;;;2.03;;
74920;SDS011;63483;47.384;8.860;2023-12-20T06:07:34;3.60;;;1.80;;
74920;SDS011;63483;47.384;8.860;2023-12-20T06:09:59;3.33;;;1.80;;
74920;SDS011;63483;47.384;8.860;2023-12-20T06:12:24;3.42;;;1.77;;
74920;SDS011;63483;47.384;8.860;2023-12-20T06:14:51;3.50;;;1.83;;
74920;SDS011;63483;47.384;8.860;2023-12-20T06:17:17;3.92;;;2.10;;
74920;SDS011;63483;47.384;8.860;2023-12-20T06:19:42;4.82;;;2.63;;
74920;SDS011;63483;47.384;8.860;2023-12-20T06:22:09;4.70;;;2.37;;
74920;SDS011;63483;47.384;8.860;2023-12-20T06:24:35;3.70;;;2.25;;
74920;SDS011;63483;47.384;8.860;2023-12-20T06:27:01;4.57;;;3.20;;
74920;SDS011;63483;47.384;8.860;2023-12-20T06:29:26;4.60;;;2.93;;
74920;SDS011;63483;47.384;8.860;2023-12-20T06:31:51;4.53;;;2.87;;
74920;SDS011;63483;47.384;8.860;2023-12-20T06:34:17;4.30;;;2.50;;
74920;SDS011;63483;47.384;8.860;2023-12-20T06:36:42;4.57;;;2.97;;
74920;SDS011;63483;47.384;8.860;2023-12-20T06:39:08;5.57;;;3.33;;
74920;SDS011;63483;47.384;8.860;2023-12-20T06:41:33;5.55;;;3.38;;
74920;SDS011;63483;47.384;8.860;2023-12-20T06:43:59;4.93;;;2.83;;
74920;SDS011;63483;47.384;8.860;2023-12-20T06:46:24;4.43;;;2.63;;
74920;SDS011;63483;47.384;8.860;2023-12-20T06:48:50;5.73;;;2.43;;
74920;SDS011;63483;47.384;8.860;2023-12-20T06:51:16;4.78;;;2.63;;
74920;SDS011;63483;47.384;8.860;2023-12-20T06:53:41;4.80;;;2.50;;
74920;SDS011;63483;47.384;8.860;2023-12-20T06:56:07;3.60;;;2.55;;
74920;SDS011;63483;47.384;8.860;2023-12-20T06:58:33;4.20;;;2.47;;
74920;SDS011;63483;47.384;8.860;2023-12-20T07:00:59;4.55;;;2.50;;
74920;SDS011;63483;47.384;8.860;2023-12-20T07:03:24;3.87;;;2.30;;
74920;SDS011;63483;47.384;8.860;2023-12-20T07:05:49;4.50;;;2.47;;
74920;SDS011;63483;47.384;8.860;2023-12-20T07:08:15;4.10;;;2.53;;
74920;SDS011;63483;47.384;8.860;2023-12-20T07:10:40;3.07;;;1.97;;
74920;SDS011;63483;47.384;8.860;2023-12-20T07:13:06;3.70;;;2.47;;
74920;SDS011;63483;47.384;8.860;2023-12-20T07:15:32;4.00;;;2.50;;
74920;SDS011;63483;47.384;8.860;2023-12-20T07:17:58;4.83;;;2.23;;
74920;SDS011;63483;47.384;8.860;2023-12-20T07:20:25;4.18;;;2.17;;
74920;SDS011;63483;47.384;8.860;2023-12-20T07:22:50;4.23;;;2.40;;
74920;SDS011;63483;47.384;8.860;2023-12-20T07:25:16;4.60;;;3.03;;
74920;SDS011;63483;47.384;8.860;2023-12-20T07:27:41;4.80;;;3.20;;
74920;SDS011;63483;47.384;8.860;2023-12-20T07:30:06;4.30;;;2.47;;
74920;SDS011;63483;47.384;8.860;2023-12-20T07:32:32;4.07;;;2.15;;
74920;SDS011;63483;47.384;8.860;2023-12-20T07:34:57;3.30;;;2.13;;
74920;SDS011;63483;47.384;8.860;2023-12-20T07:37:23;3.43;;;1.70;;
74920;SDS011;63483;47.384;8.860;2023-12-20T07:39:48;3.27;;;1.93;;
74920;SDS011;63483;47.384;8.860;2023-12-20T07:42:13;3.77;;;1.70;;
74920;SDS011;63483;47.384;8.860;2023-12-20T07:44:39;3.83;;;1.67;;
74920;SDS011;63483;47.384;8.860;2023-12-20T07:47:04;2.80;;;1.75;;
74920;SDS011;63483;47.384;8.860;2023-12-20T07:49:32;2.93;;;1.87;;
74920;SDS011;63483;47.384;8.860;2023-12-20T07:51:58;2.72;;;1.55;;
74920;SDS011;63483;47.384;8.860;2023-12-20T07:54:23;2.97;;;1.53;;
74920;SDS011;63483;47.384;8.860;2023-12-20T07:56:49;4.20;;;1.93;;
74920;SDS011;63483;47.384;8.860;2023-12-20T07:59:14;2.95;;;1.60;;
74920;SDS011;63483;47.384;8.860;2023-12-20T08:01:40;2.77;;;1.50;;
74920;SDS011;63483;47.384;8.860;2023-12-20T08:04:05;2.73;;;1.40;;
74920;SDS011;63483;47.384;8.860;2023-12-20T08:06:30;4.07;;;1.93;;
74920;SDS011;63483;47.384;8.860;2023-12-20T08:08:56;3.27;;;2.10;;
74920;SDS011;63483;47.384;8.860;2023-12-20T08:11:21;1.93;;;1.27;;
74920;SDS011;63483;47.384;8.860;2023-12-20T08:13:46;4.53;;;1.80;;
74920;SDS011;63483;47.384;8.860;2023-12-20T08:16:11;4.10;;;2.20;;
74920;SDS011;63483;47.384;8.860;2023-12-20T08:18:38;2.75;;;1.95;;
74920;SDS011;63483;47.384;8.860;2023-12-20T08:21:04;3.45;;;1.85;;
74920;SDS011;63483;47.384;8.860;2023-12-20T08:23:32;2.53;;;1.50;;
74920;SDS011;63483;47.384;8.860;2023-12-20T08:25:58;3.03;;;1.40;;
74920;SDS011;63483;47.384;8.860;2023-12-20T08:28:23;3.30;;;1.23;;
74920;SDS011;63483;47.384;8.860;2023-12-20T08:30:48;2.27;;;1.43;;
74920;SDS011;63483;47.384;8.860;2023-12-20T08:33:15;2.33;;;1.35;;
74920;SDS011;63483;47.384;8.860;2023-12-20T08:35:40;2.47;;;1.20;;
74920;SDS011;63483;47.384;8.860;2023-12-20T08:38:05;2.20;;;1.40;;
74920;SDS011;63483;47.384;8.860;2023-12-20T08:40:31;2.72;;;1.25;;
74920;SDS011;63483;47.384;8.860;2023-12-20T08:42:56;2.83;;;1.40;;
74920;SDS011;63483;47.384;8.860;2023-12-20T08:45:22;3.33;;;1.93;;
74920;SDS011;63483;47.384;8.860;2023-12-20T08:47:47;2.00;;;1.17;;
74920;SDS011;63483;47.384;8.860;2023-12-20T08:50:12;2.70;;;1.73;;
74920;SDS011;63483;47.384;8.860;2023-12-20T08:52:38;2.47;;;1.20;;
74920;SDS011;63483;47.384;8.860;2023-12-20T08:55:03;4.07;;;1.77;;
74920;SDS011;63483;47.384;8.860;2023-12-20T08:57:29;2.67;;;1.75;;
74920;SDS011;63483;47.384;8.860;2023-12-20T08:59:58;2.85;;;1.65;;
74920;SDS011;63483;47.384;8.860;2023-12-20T09:02:24;2.47;;;1.40;;
74920;SDS011;63483;47.384;8.860;2023-12-20T09:04:49;2.67;;;1.60;;
74920;SDS011;63483;47.384;8.860;2023-12-20T09:07:27;2.90;;;2.00;;
74920;SDS011;63483;47.384;8.860;2023-12-20T09:09:55;5.53;;;2.97;;
74920;SDS011;63483;47.384;8.860;2023-12-20T09:12:21;4.67;;;2.40;;
74920;SDS011;63483;47.384;8.860;2023-12-20T09:14:47;3.13;;;1.88;;
74920;SDS011;63483;47.384;8.860;2023-12-20T09:17:14;3.92;;;2.10;;
74920;SDS011;63483;47.384;8.860;2023-12-20T09:19:41;3.33;;;1.83;;
74920;SDS011;63483;47.384;8.860;2023-12-20T09:22:06;2.95;;;1.80;;
74920;SDS011;63483;47.384;8.860;2023-12-20T09:24:32;2.77;;;1.70;;
74920;SDS011;63483;47.384;8.860;2023-12-20T09:26:57;2.57;;;1.60;;
74920;SDS011;63483;47.384;8.860;2023-12-20T09:29:23;3.80;;;2.37;;
74920;SDS011;63483;47.384;8.860;2023-12-20T09:31:49;4.87;;;2.47;;
74920;SDS011;63483;47.384;8.860;2023-12-20T09:34:15;3.35;;;1.92;;
74920;SDS011;63483;47.384;8.860;2023-12-20T09:36:42;2.90;;;1.63;;
74920;SDS011;63483;47.384;8.860;2023-12-20T09:39:11;2.63;;;1.60;;
74920;SDS011;63483;47.384;8.860;2023-12-20T09:41:38;3.17;;;1.90;;
74920;SDS011;63483;47.384;8.860;2023-12-20T09:44:08;4.32;;;1.90;;
74920;SDS011;63483;47.384;8.860;2023-12-20T09:46:44;3.28;;;2.10;;
74920;SDS011;63483;47.384;8.860;2023-12-20T09:49:14;2.77;;;1.70;;
74920;SDS011;63483;47.384;8.860;2023-12-20T09:51:42;2.70;;;1.27;;
74920;SDS011;63483;47.384;8.860;2023-12-20T09:54:07;2.97;;;2.00;;
74920;SDS011;63483;47.384;8.860;2023-12-20T09:56:34;3.40;;;2.40;;
74920;SDS011;63483;47.384;8.860;2023-12-20T09:59:00;3.37;;;2.10;;
74920;SDS011;63483;47.384;8.860;2023-12-20T10:01:25;3.17;;;1.70;;
74920;SDS011;63483;47.384;8.860;2023-12-20T10:03:54;3.08;;;1.83;;
74920;SDS011;63483;47.384;8.860;2023-12-20T10:06:20;3.35;;;1.98;;
74920;SDS011;63483;47.384;8.860;2023-12-20T10:08:46;3.90;;;2.20;;
74920;SDS011;63483;47.384;8.860;2023-12-20T10:11:11;3.00;;;1.57;;
74920;SDS011;63483;47.384;8.860;2023-12-20T10:13:40;4.60;;;3.20;;
74920;SDS011;63483;47.384;8.860;2023-12-20T10:16:06;3.70;;;2.03;;
74920;SDS011;63483;47.384;8.860;2023-12-20T10:18:34;2.97;;;1.70;;
74920;SDS011;63483;47.384;8.860;2023-12-20T10:21:00;3.40;;;2.20;;
74920;SDS011;63483;47.384;8.860;2023-12-20T10:23:26;3.65;;;2.28;;
74920;SDS011;63483;47.384;8.860;2023-12-20T10:25:57;3.47;;;2.50;;
74920;SDS011;63483;47.384;8.860;2023-12-20T10:28:25;3.70;;;1.97;;
74920;SDS011;63483;47.384;8.860;2023-12-20T10:30:53;3.92;;;1.90;;
74920;SDS011;63483;47.384;8.860;2023-12-20T10:33:25;3.58;;;2.40;;
74920;SDS011;63483;47.384;8.860;2023-12-20T10:35:54;2.97;;;1.92;;
74920;SDS011;63483;47.384;8.860;2023-12-20T10:38:20;2.35;;;1.52;;
74920;SDS011;63483;47.384;8.860;2023-12-20T10:40:46;2.57;;;1.80;;
74920;SDS011;63483;47.384;8.860;2023-12-20T10:43:12;2.40;;;1.20;;
74920;SDS011;63483;47.384;8.860;2023-12-20T10:45:41;3.40;;;1.65;;
74920;SDS011;63483;47.384;8.860;2023-12-20T10:48:09;2.33;;;1.07;;
74920;SDS011;63483;47.384;8.860;2023-12-20T10:50:36;2.72;;;1.35;;
74920;SDS011;63483;47.384;8.860;2023-12-20T10:53:05;2.63;;;1.35;;
74920;SDS011;63483;47.384;8.860;2023-12-20T10:55:31;2.08;;;1.27;;
74920;SDS011;63483;47.384;8.860;2023-12-20T10:58:01;2.13;;;1.13;;
74920;SDS011;63483;47.384;8.860;2023-12-20T11:00:31;2.47;;;1.40;;
74920;SDS011;63483;47.384;8.860;2023-12-20T11:02:59;3.72;;;1.25;;
74920;SDS011;63483;47.384;8.860;2023-12-20T11:05:40;1.80;;;1.00;;
74920;SDS011;63483;47.384;8.860;2023-12-20T11:08:14;2.00;;;0.95;;
74920;SDS011;63483;47.384;8.860;2023-12-20T11:10:49;1.80;;;0.90;;
74920;SDS011;63483;47.384;8.860;2023-12-20T11:13:23;3.07;;;1.33;;
74920;SDS011;63483;47.384;8.860;2023-12-20T11:15:51;3.80;;;1.50;;
74920;SDS011;63483;47.384;8.860;2023-12-20T11:18:17;1.95;;;0.93;;
74920;SDS011;63483;47.384;8.860;2023-12-20T11:20:42;2.23;;;1.20;;
74920;SDS011;63483;47.384;8.860;2023-12-20T11:23:08;2.60;;;1.80;;
74920;SDS011;63483;47.384;8.860;2023-12-20T11:28:22;2.60;;;1.50;;
74920;SDS011;63483;47.384;8.860;2023-12-20T11:30:53;2.53;;;1.80;;
74920;SDS011;63483;47.384;8.860;2023-12-20T11:33:23;2.35;;;1.35;;
74920;SDS011;63483;47.384;8.860;2023-12-20T11:36:01;2.13;;;1.20;;
74920;SDS011;63483;47.384;8.860;2023-12-20T11:38:28;2.30;;;1.40;;
74920;SDS011;63483;47.384;8.860;2023-12-20T11:41:01;3.03;;;1.57;;
74920;SDS011;63483;47.384;8.860;2023-12-20T11:43:32;4.50;;;1.58;;
74920;SDS011;63483;47.384;8.860;2023-12-20T11:48:30;3.15;;;1.60;;
74920;SDS011;63483;47.384;8.860;2023-12-20T11:50:56;2.97;;;1.83;;
74920;SDS011;63483;47.384;8.860;2023-12-20T11:53:22;2.90;;;1.60;;
74920;SDS011;63483;47.384;8.860;2023-12-20T11:55:48;4.17;;;2.23;;
74920;SDS011;63483;47.384;8.860;2023-12-20T11:58:14;3.33;;;2.13;;
74920;SDS011;63483;47.384;8.860;2023-12-20T12:00:41;3.95;;;2.30;;
74920;SDS011;63483;47.384;8.860;2023-12-20T12:03:07;3.58;;;2.30;;
74920;SDS011;63483;47.384;8.860;2023-12-20T12:05:33;4.53;;;2.55;;
74920;SDS011;63483;47.384;8.860;2023-12-20T12:07:58;4.10;;;2.10;;
74920;SDS011;63483;47.384;8.860;2023-12-20T12:10:23;3.00;;;2.00;;
74920;SDS011;63483;47.384;8.860;2023-12-20T12:12:49;3.27;;;1.93;;
74920;SDS011;63483;47.384;8.860;2023-12-20T12:15:15;3.72;;;2.28;;
74920;SDS011;63483;47.384;8.860;2023-12-20T12:17:40;3.80;;;1.97;;
74920;SDS011;63483;47.384;8.860;2023-12-20T12:20:06;3.33;;;2.10;;
74920;SDS011;63483;47.384;8.860;2023-12-20T12:22:32;3.42;;;2.00;;
74920;SDS011;63483;47.384;8.860;2023-12-20T12:24:59;3.17;;;1.85;;
74920;SDS011;63483;47.384;8.860;2023-12-20T12:27:34;3.40;;;1.80;;
74920;SDS011;63483;47.384;8.860;2023-12-20T12:30:00;3.70;;;1.92;;
74920;SDS011;63483;47.384;8.860;2023-12-20T12:32:32;3.83;;;2.63;;
74920;SDS011;63483;47.384;8.860;2023-12-20T12:34:57;2.80;;;2.00;;
74920;SDS011;63483;47.384;8.860;2023-12-20T12:37:22;2.37;;;1.50;;
74920;SDS011;63483;47.384;8.860;2023-12-20T12:39:53;2.63;;;1.27;;
74920;SDS011;63483;47.384;8.860;2023-12-20T12:42:19;3.58;;;1.55;;
74920;SDS011;63483;47.384;8.860;2023-12-20T12:44:46;2.60;;;1.45;;
74920;SDS011;63483;47.384;8.860;2023-12-20T12:47:11;2.80;;;1.50;;
74920;SDS011;63483;47.384;8.860;2023-12-20T12:49:37;2.70;;;1.30;;
74920;SDS011;63483;47.384;8.860;2023-12-20T12:52:02;3.23;;;1.40;;
74920;SDS011;63483;47.384;8.860;2023-12-20T12:54:28;3.30;;;1.70;;
74920;SDS011;63483;47.384;8.860;2023-12-20T12:56:53;2.30;;;1.60;;
74920;SDS011;63483;47.384;8.860;2023-12-20T12:59:18;2.67;;;1.60;;
74920;SDS011;63483;47.384;8.860;2023-12-20T13:01:44;2.72;;;1.48;;
74920;SDS011;63483;47.384;8.860;2023-12-20T13:04:09;2.30;;;1.27;;
74920;SDS011;63483;47.384;8.860;2023-12-20T13:06:38;7.32;;;2.58;;
74920;SDS011;63483;47.384;8.860;2023-12-20T13:09:04;3.05;;;1.52;;
74920;SDS011;63483;47.384;8.860;2023-12-20T13:11:30;3.17;;;1.30;;
74920;SDS011;63483;47.384;8.860;2023-12-20T13:13:56;2.80;;;1.80;;
74920;SDS011;63483;47.384;8.860;2023-12-20T13:16:22;2.92;;;1.60;;
74920;SDS011;63483;47.384;8.860;2023-12-20T13:18:48;2.60;;;1.50;;
74920;SDS011;63483;47.384;8.860;2023-12-20T13:21:13;3.03;;;1.10;;
74920;SDS011;63483;47.384;8.860;2023-12-20T13:23:39;2.67;;;1.13;;
74920;SDS011;63483;47.384;8.860;2023-12-20T13:26:04;2.60;;;1.23;;
74920;SDS011;63483;47.384;8.860;2023-12-20T13:28:29;2.03;;;1.00;;
74920;SDS011;63483;47.384;8.860;2023-12-20T13:30:54;1.93;;;1.40;;
74920;SDS011;63483;47.384;8.860;2023-12-20T13:33:20;1.97;;;0.93;;
74920;SDS011;63483;47.384;8.860;2023-12-20T13:35:45;2.80;;;1.50;;
74920;SDS011;63483;47.384;8.860;2023-12-20T13:38:13;3.45;;;1.00;;
74920;SDS011;63483;47.384;8.860;2023-12-20T13:40:39;3.77;;;1.43;;
74920;SDS011;63483;47.384;8.860;2023-12-20T13:43:04;2.50;;;1.50;;
74920;SDS011;63483;47.384;8.860;2023-12-20T13:45:29;1.92;;;1.00;;
74920;SDS011;63483;47.384;8.860;2023-12-20T13:47:55;2.95;;;1.42;;
74920;SDS011;63483;47.384;8.860;2023-12-20T13:50:20;2.37;;;1.20;;
74920;SDS011;63483;47.384;8.860;2023-12-20T13:52:45;3.80;;;1.40;;
74920;SDS011;63483;47.384;8.860;2023-12-20T13:55:11;2.83;;;1.07;;
74920;SDS011;63483;47.384;8.860;2023-12-20T13:57:36;1.83;;;0.93;;
74920;SDS011;63483;47.384;8.860;2023-12-20T14:00:06;2.20;;;1.02;;
74920;SDS011;63483;47.384;8.860;2023-12-20T14:02:38;2.15;;;1.33;;
74920;SDS011;63483;47.384;8.860;2023-12-20T14:05:03;3.87;;;1.00;;
74920;SDS011;63483;47.384;8.860;2023-12-20T14:07:29;1.48;;;0.60;;
74920;SDS011;63483;47.384;8.860;2023-12-20T14:09:54;4.03;;;1.17;;
74920;SDS011;63483;47.384;8.860;2023-12-20T14:12:19;2.83;;;1.07;;
74920;SDS011;63483;47.384;8.860;2023-12-20T14:14:45;2.23;;;0.83;;
74920;SDS011;63483;47.384;8.860;2023-12-20T14:17:10;1.77;;;0.83;;
74920;SDS011;63483;47.384;8.860;2023-12-20T14:19:36;1.55;;;0.68;;
74920;SDS011;63483;47.384;8.860;2023-12-20T14:22:01;1.80;;;0.80;;
74920;SDS011;63483;47.384;8.860;2023-12-20T14:24:28;12.52;;;1.10;;
74920;SDS011;63483;47.384;8.860;2023-12-20T14:26:53;2.10;;;1.10;;
74920;SDS011;63483;47.384;8.860;2023-12-20T14:29:19;2.57;;;1.00;;
74920;SDS011;63483;47.384;8.860;2023-12-20T14:31:44;2.37;;;0.70;;
74920;SDS011;63483;47.384;8.860;2023-12-20T14:34:10;1.75;;;0.98;;
74920;SDS011;63483;47.384;8.860;2023-12-20T14:36:35;2.63;;;1.03;;
74920;SDS011;63483;47.384;8.860;2023-12-20T14:39:00;2.93;;;0.80;;
74920;SDS011;63483;47.384;8.860;2023-12-20T14:41:27;2.92;;;0.95;;
74920;SDS011;63483;47.384;8.860;2023-12-20T14:43:53;3.87;;;0.90;;
74920;SDS011;63483;47.384;8.860;2023-12-20T14:46:18;3.90;;;1.30;;